Briefing drone pour La ricamarie

Rechercher une autre localisation

Conditions de vol :


Nous sommes le : Mardi 28 septembre 2021
Il est 12:42 UTC (14:42 LT)

Lever de soleil : 05:10 UTC (07:10 LT)
Coucher de soleil : 17:55 UTC (19:55 LT)

Météo

L'essentiel des conditions de vol

VIGILANCE MÉTÉO FRANCE - Loire (42)
Pas de vigilances particulieres
CARTES DES FRONTS
METAR de LFMH
LFMH 281230Z AUTO VRB03KT CAVOK 17/08 Q1022

Date d'émission: 28/09/2021
Heure d'émission: 12:30 UTC
Vent: Variable 3 KT (6 km/h)
Visibilité horizontale: > 10 km
Plafond : Plafond et visibilité OK (CAVOK)
Température: 17 °C
Point de rosée: 8 °C
Humidité: 55%
Pression (QNH): 1022 hPa
TAF de LFMH
LFMH 161901Z 1619/1712 CNL

Conditions prévues :

Heure d'émission : Bulletin éffectué le 16 à 19:00 UTC
Prévision : Valide du 16 a 19:00 UTC au 17 a 12:00 UTC
Nuages : à 0ft (0 m)
WEBCAM POUR LA RICAMARIE

Réglementation

Voler en sécurité

CARTES AERONAUTIQUE 1/500.000
CARTES VAC (LFMH)
SUP AIP




Chargement des AIP...
NOTAM (LA RICAMARIE + Terrain à proximité / FIR )




Chargement des NOTAMS...
CONTACT PREFECTURE 42


Avertissement : Les données mises à disposition sont indicatives. Oxygène Drone ne pourra être tenu responsable de dégâts causés aux biens et aux personnes.